Time;durP1;ratioP1;P1;durP2;ratioP2;P2;SDS_P1;SDS_P2;PMS_P1;PMS_P2;Temp;Humidity;BMP_temperature;BMP_pressure;BME280_temperature;BME280_humidity;BME280_pressure;Samples;Min_cycle;Max_cycle;Signal;HPM_P1;HPM_P2
2021/03/09 00:01:16;;;;;;;185.57;86.93;;;-5.70;1.00;;;;;;4846977;28;20642;-84
2021/03/09 00:03:38;;;;;;;200.47;89.20;;;-5.70;1.00;;;;;;4842590;28;20605;-87
2021/03/09 00:06:01;;;;;;;190.60;91.77;;;-5.70;1.00;;;;;;4857379;28;20681;-85
2021/03/09 00:08:24;;;;;;;219.33;98.30;;;-5.70;1.00;;;;;;4861764;28;20596;-87
2021/03/09 00:10:46;;;;;;;210.63;97.10;;;-5.70;1.00;;;;;;4860153;28;20665;-88
2021/03/09 00:13:13;;;;;;;215.47;100.53;;;-5.80;1.00;;;;;;4862204;28;20607;-83
2021/03/09 00:15:36;;;;;;;196.23;94.03;;;-5.80;1.00;;;;;;4860250;28;20742;-85
2021/03/09 00:17:58;;;;;;;179.40;86.30;;;-5.80;1.00;;;;;;4861209;28;20627;-84
2021/03/09 00:20:23;;;;;;;186.97;86.80;;;-5.70;1.00;;;;;;4858482;28;20688;-87
2021/03/09 00:22:46;;;;;;;172.57;81.50;;;-5.80;1.00;;;;;;4855194;28;20608;-86
2021/03/09 00:25:11;;;;;;;163.23;80.67;;;-5.90;1.00;;;;;;4858640;28;20615;-82
2021/03/09 00:27:33;;;;;;;182.60;83.57;;;-5.80;1.00;;;;;;4841282;28;20628;-75
2021/03/09 00:29:56;;;;;;;186.53;86.73;;;-5.80;1.00;;;;;;4841037;28;20627;-86
2021/03/09 00:32:19;;;;;;;183.87;87.50;;;-5.90;1.00;;;;;;4856273;28;20647;-83
2021/03/09 00:34:44;;;;;;;181.83;81.87;;;-5.90;1.00;;;;;;4860322;28;21211;-86
2021/03/09 00:37:07;;;;;;;184.70;84.30;;;-6.00;1.00;;;;;;4860278;28;20615;-87
2021/03/09 00:39:30;;;;;;;171.63;78.50;;;-6.00;1.00;;;;;;4858705;28;20725;-86
2021/03/09 00:41:53;;;;;;;165.70;77.43;;;-6.10;1.00;;;;;;4859189;28;20634;-86
2021/03/09 00:44:16;;;;;;;158.33;66.17;;;-6.10;1.00;;;;;;4858787;28;20687;-87
2021/03/09 00:46:40;;;;;;;146.67;64.90;;;-6.10;1.00;;;;;;4842416;28;20600;-87
2021/03/09 00:49:03;;;;;;;148.47;67.20;;;-6.10;1.00;;;;;;4842443;28;20626;-87
2021/03/09 00:51:25;;;;;;;144.33;67.20;;;-6.20;1.00;;;;;;4858603;28;20652;-87
2021/03/09 00:53:48;;;;;;;160.83;71.23;;;-6.10;1.00;;;;;;4861157;28;20665;-87
2021/03/09 00:56:12;;;;;;;152.77;65.13;;;-6.20;1.00;;;;;;4849364;28;20662;-85
2021/03/09 00:58:36;;;;;;;142.97;63.43;;;-6.20;1.00;;;;;;4860466;28;20603;-87
2021/03/09 01:00:59;;;;;;;176.60;79.93;;;-6.20;1.00;;;;;;4858186;28;20615;-81
2021/03/09 01:03:23;;;;;;;172.73;76.47;;;-6.20;1.00;;;;;;4860536;28;20571;-85
2021/03/09 01:05:46;;;;;;;166.10;73.57;;;-6.30;1.00;;;;;;4857047;28;20610;-87
2021/03/09 01:08:09;;;;;;;158.00;71.23;;;-6.30;1.00;;;;;;4844420;28;20616;-84
2021/03/09 01:10:32;;;;;;;168.60;71.17;;;-6.30;1.00;;;;;;4851462;28;21125;-87
2021/03/09 01:12:55;;;;;;;142.93;66.63;;;-6.30;1.00;;;;;;4859622;28;20598;-86
2021/03/09 01:15:18;;;;;;;149.50;65.70;;;-6.30;1.00;;;;;;4859229;28;20659;-75
2021/03/09 01:17:40;;;;;;;150.33;67.00;;;-6.30;1.00;;;;;;4859673;28;20653;-85
2021/03/09 01:20:06;;;;;;;154.00;68.93;;;-6.30;1.00;;;;;;4858263;28;20661;-87
2021/03/09 01:22:29;;;;;;;135.90;63.13;;;-6.30;1.00;;;;;;4858544;28;20635;-86
2021/03/09 01:24:52;;;;;;;146.80;65.07;;;-6.40;1.00;;;;;;4857710;28;20648;-87
2021/03/09 01:27:15;;;;;;;132.47;63.07;;;-6.40;1.00;;;;;;4860072;28;20974;-79
2021/03/09 01:29:37;;;;;;;138.77;62.83;;;-6.40;1.00;;;;;;4856888;28;21034;-80
2021/03/09 01:31:59;;;;;;;140.63;64.40;;;-6.40;1.00;;;;;;4840503;28;20718;-85
2021/03/09 01:34:21;;;;;;;164.30;77.47;;;-6.40;1.00;;;;;;4841848;28;20636;-84
2021/03/09 01:36:44;;;;;;;165.90;76.83;;;-6.40;1.00;;;;;;4856943;28;20672;-85
2021/03/09 01:39:06;;;;;;;170.50;77.67;;;-6.50;1.00;;;;;;4859613;28;20587;-85
2021/03/09 01:41:29;;;;;;;148.80;68.03;;;-6.60;1.00;;;;;;4842725;28;20624;-75
2021/03/09 01:43:51;;;;;;;138.07;63.13;;;-6.60;1.00;;;;;;4855325;28;20608;-80
2021/03/09 01:46:14;;;;;;;128.17;57.90;;;-6.70;1.00;;;;;;4851364;28;20653;-84
2021/03/09 01:48:39;;;;;;;115.97;51.77;;;-6.70;1.00;;;;;;4859059;28;20603;-86
2021/03/09 01:51:01;;;;;;;116.27;49.33;;;-6.70;1.00;;;;;;4857057;28;20717;-86
2021/03/09 01:53:24;;;;;;;94.00;44.90;;;-6.70;1.00;;;;;;4857253;28;20620;-85
2021/03/09 01:55:46;;;;;;;102.47;45.23;;;-6.70;1.00;;;;;;4857408;28;20623;-86
2021/03/09 01:58:10;;;;;;;108.33;48.03;;;-6.70;1.00;;;;;;4859244;28;21008;-79
2021/03/09 02:00:33;;;;;;;111.73;48.43;;;-6.70;1.00;;;;;;4856286;28;20616;-75
2021/03/09 02:02:55;;;;;;;111.47;47.00;;;-6.70;1.00;;;;;;4859017;28;20560;-84
2021/03/09 02:05:17;;;;;;;112.90;49.73;;;-6.70;1.00;;;;;;4856656;28;20674;-81
2021/03/09 02:07:41;;;;;;;121.43;53.33;;;-6.70;1.00;;;;;;4858219;28;20981;-82
2021/03/09 02:10:07;;;;;;;120.77;54.17;;;-6.80;1.00;;;;;;4855433;28;20643;-75
2021/03/09 02:12:37;;;;;;;145.23;60.83;;;-6.80;1.00;;;;;;4839475;28;20659;-73
2021/03/09 02:15:07;;;;;;;130.23;56.93;;;-6.90;1.00;;;;;;4841978;28;20643;-82
2021/03/09 02:17:33;;;;;;;126.90;56.57;;;-6.90;1.00;;;;;;4847308;28;20616;-73
2021/03/09 02:20:32;;;;;;;123.50;54.97;;;-6.80;1.00;;;;;;4839220;28;21478;-84
2021/03/09 02:23:38;;;;;;;128.87;54.87;;;-6.90;1.00;;;;;;4854216;28;21002;-85
2021/03/09 02:26:32;;;;;;;143.97;60.83;;;-6.90;1.00;;;;;;4846261;28;20589;-85
2021/03/09 02:29:03;;;;;;;143.73;64.63;;;-6.90;1.00;;;;;;4838499;28;20596;-80
2021/03/09 02:31:29;;;;;;;150.83;65.90;;;-6.90;1.00;;;;;;4841329;28;21184;-84
2021/03/09 02:33:55;;;;;;;138.40;63.20;;;-7.00;1.00;;;;;;4838938;28;20640;-84
2021/03/09 02:36:20;;;;;;;143.50;64.83;;;-7.00;1.00;;;;;;4838455;28;20624;-77
2021/03/09 02:38:49;;;;;;;153.57;68.20;;;-7.00;1.00;;;;;;4838146;28;20608;-82
2021/03/09 02:41:13;;;;;;;155.90;71.33;;;-7.00;1.00;;;;;;4838415;28;21404;-84
2021/03/09 02:43:36;;;;;;;178.30;83.63;;;-7.00;1.00;;;;;;4838703;28;20666;-85
2021/03/09 02:46:01;;;;;;;170.33;80.77;;;-7.10;1.00;;;;;;4856472;28;20669;-84
2021/03/09 02:48:27;;;;;;;176.53;77.93;;;-7.10;1.00;;;;;;4857772;28;20661;-83
2021/03/09 02:50:52;;;;;;;173.23;78.03;;;-7.00;1.00;;;;;;4848570;28;20636;-79
2021/03/09 02:53:15;;;;;;;170.77;78.13;;;-7.00;1.00;;;;;;4837895;28;20624;-83
2021/03/09 02:55:38;;;;;;;180.97;82.33;;;-7.00;5.00;;;;;;4838263;28;20600;-84
2021/03/09 02:58:01;;;;;;;163.50;76.00;;;-7.00;11.90;;;;;;4850560;28;20604;-85
2021/03/09 03:00:25;;;;;;;157.33;74.70;;;-6.90;16.40;;;;;;4854580;28;20606;-78
2021/03/09 03:02:47;;;;;;;145.10;70.03;;;-6.90;19.40;;;;;;4855702;28;20594;-77
2021/03/09 03:05:12;;;;;;;145.27;65.63;;;-6.90;21.90;;;;;;4856566;28;20607;-83
2021/03/09 03:07:36;;;;;;;137.70;65.70;;;-6.90;25.70;;;;;;4857501;28;21149;-85
2021/03/09 03:09:59;;;;;;;148.73;67.80;;;-6.90;30.00;;;;;;4854983;28;21177;-82
2021/03/09 03:12:21;;;;;;;135.03;63.93;;;-6.90;34.50;;;;;;4837844;28;20698;-85
2021/03/09 03:14:46;;;;;;;144.30;63.77;;;-6.80;37.80;;;;;;4837599;28;20658;-85
2021/03/09 03:17:09;;;;;;;134.63;60.53;;;-6.80;40.80;;;;;;4838461;28;20605;-80
2021/03/09 03:19:33;;;;;;;127.33;55.57;;;-6.80;43.00;;;;;;4838165;28;20634;-81
2021/03/09 03:21:57;;;;;;;137.93;59.03;;;-6.80;44.90;;;;;;4849728;28;20619;-82
2021/03/09 03:24:20;;;;;;;134.00;60.30;;;-6.80;45.80;;;;;;4851439;28;20597;-83
2021/03/09 03:26:45;;;;;;;125.83;59.40;;;-6.80;46.20;;;;;;4837972;28;20674;-84
2021/03/09 03:29:09;;;;;;;126.53;59.47;;;-6.80;46.40;;;;;;4837840;28;20647;-85
2021/03/09 03:31:31;;;;;;;125.33;57.37;;;-6.80;45.30;;;;;;4847879;28;20709;-76
2021/03/09 03:33:54;;;;;;;121.83;55.53;;;-6.90;43.80;;;;;;4853902;28;21262;-84
2021/03/09 03:36:17;;;;;;;116.20;53.37;;;-6.90;42.30;;;;;;4839399;28;20597;-80
2021/03/09 03:38:41;;;;;;;120.73;57.93;;;-6.90;41.60;;;;;;4843852;28;20612;-84
2021/03/09 03:41:05;;;;;;;126.57;58.73;;;-6.90;41.10;;;;;;4856831;28;21016;-80
2021/03/09 03:43:27;;;;;;;128.43;59.70;;;-6.90;41.60;;;;;;4852989;28;20640;-83
2021/03/09 03:45:49;;;;;;;121.03;56.67;;;-6.90;43.40;;;;;;4849387;28;20645;-77
2021/03/09 03:48:11;;;;;;;129.27;58.87;;;-6.80;46.20;;;;;;4855323;28;20651;-81
2021/03/09 03:50:33;;;;;;;118.93;56.07;;;-6.80;49.70;;;;;;4848367;28;20720;-84
2021/03/09 03:53:02;;;;;;;127.30;57.23;;;-6.70;52.70;;;;;;4841737;28;20605;-82
2021/03/09 03:55:39;;;;;;;129.40;57.53;;;-6.70;55.60;;;;;;4836643;28;20608;-80
2021/03/09 03:58:13;;;;;;;122.83;56.37;;;-6.60;58.70;;;;;;4846994;28;20646;-81
2021/03/09 04:00:35;;;;;;;124.63;55.60;;;-6.60;60.90;;;;;;4856442;28;20672;-85
2021/03/09 04:02:58;;;;;;;124.13;55.77;;;-6.50;63.20;;;;;;4857407;28;20572;-83
2021/03/09 04:05:22;;;;;;;134.83;61.80;;;-6.40;65.50;;;;;;4855808;28;20596;-83
2021/03/09 04:07:47;;;;;;;140.13;62.77;;;-6.30;68.10;;;;;;4848244;28;20696;-84
2021/03/09 04:10:09;;;;;;;133.37;61.50;;;-6.30;68.20;;;;;;4841109;28;20624;-85
2021/03/09 04:12:35;;;;;;;125.57;62.57;;;-6.20;69.40;;;;;;4851095;28;20704;-85
2021/03/09 04:14:59;;;;;;;119.77;59.80;;;-6.10;69.20;;;;;;4860338;28;20674;-82
2021/03/09 04:17:22;;;;;;;128.13;61.20;;;-6.10;70.40;;;;;;4858695;28;21156;-83
2021/03/09 04:19:45;;;;;;;142.33;67.53;;;-6.00;72.00;;;;;;4846395;28;20635;-77
2021/03/09 04:22:07;;;;;;;140.93;68.00;;;-5.90;73.30;;;;;;4843748;28;20612;-77
2021/03/09 04:24:30;;;;;;;143.67;67.23;;;-5.90;72.30;;;;;;4840906;28;20769;-83
2021/03/09 04:26:53;;;;;;;130.10;63.33;;;-5.80;71.00;;;;;;4840944;28;21153;-80
2021/03/09 04:29:17;;;;;;;121.00;60.03;;;-5.60;69.60;;;;;;4850479;28;20615;-85
2021/03/09 04:31:40;;;;;;;134.30;62.93;;;-5.70;67.00;;;;;;4855206;28;20656;-84
2021/03/09 04:34:03;;;;;;;139.40;66.10;;;-5.70;63.20;;;;;;4840497;28;20670;-75
2021/03/09 04:36:26;;;;;;;168.63;77.90;;;-5.70;56.20;;;;;;4840168;28;20595;-85
2021/03/09 04:38:48;;;;;;;163.70;76.70;;;-5.70;48.30;;;;;;4843212;28;20978;-77
2021/03/09 04:41:11;;;;;;;176.47;79.50;;;-5.70;38.20;;;;;;4857350;28;20607;-86
2021/03/09 04:43:34;;;;;;;166.63;77.90;;;-5.70;25.60;;;;;;4842564;28;21165;-85
2021/03/09 04:45:58;;;;;;;171.77;79.13;;;-5.80;15.80;;;;;;4846474;28;20634;-86
2021/03/09 04:48:20;;;;;;;164.63;79.33;;;-5.80;8.00;;;;;;4859789;28;20591;-85
2021/03/09 04:50:45;;;;;;;166.27;81.10;;;-5.90;1.60;;;;;;4867922;28;20610;-85
2021/03/09 04:53:08;;;;;;;163.17;76.07;;;-5.90;1.00;;;;;;4858484;28;20638;-85
2021/03/09 04:55:30;;;;;;;154.30;71.57;;;-6.00;1.00;;;;;;4852450;28;20608;-85
2021/03/09 04:57:52;;;;;;;175.23;85.97;;;-6.00;1.00;;;;;;4840602;28;20723;-85
2021/03/09 05:00:16;;;;;;;215.67;100.33;;;-6.10;1.00;;;;;;4857341;28;20611;-86
2021/03/09 05:02:39;;;;;;;181.97;88.43;;;-6.20;1.00;;;;;;4846902;28;20753;-86
2021/03/09 05:05:02;;;;;;;194.23;87.43;;;-6.20;1.00;;;;;;4840800;28;21252;-85
2021/03/09 05:07:24;;;;;;;232.03;97.13;;;-6.30;1.00;;;;;;4843742;28;20612;-85
2021/03/09 05:09:46;;;;;;;208.87;91.37;;;-6.30;1.00;;;;;;4857521;28;20615;-86
2021/03/09 05:12:08;;;;;;;206.53;94.10;;;-5.90;1.00;;;;;;4859661;28;21195;-86
2021/03/09 05:14:32;;;;;;;207.80;94.03;;;-6.40;1.00;;;;;;4857667;28;20681;-86
2021/03/09 05:16:54;;;;;;;221.10;100.23;;;-6.50;1.00;;;;;;4840286;28;21161;-84
2021/03/09 05:19:17;;;;;;;226.47;105.37;;;-6.50;1.00;;;;;;4840604;28;20679;-85
2021/03/09 05:21:39;;;;;;;225.87;101.00;;;-6.50;1.00;;;;;;4839218;28;20624;-83
2021/03/09 05:24:01;;;;;;;249.67;110.50;;;-6.60;1.00;;;;;;4840459;28;20588;-86
2021/03/09 05:26:24;;;;;;;246.87;112.40;;;-6.40;1.00;;;;;;4856249;28;20619;-84
2021/03/09 05:28:47;;;;;;;239.87;114.77;;;-6.60;1.00;;;;;;4840256;28;21240;-85
2021/03/09 05:31:09;;;;;;;261.43;116.70;;;-6.50;1.00;;;;;;4840139;28;20660;-83
2021/03/09 05:33:32;;;;;;;240.17;111.83;;;-6.50;1.00;;;;;;4858589;28;21062;-86
2021/03/09 05:35:55;;;;;;;211.03;100.20;;;-6.40;1.40;;;;;;4844552;28;20655;-84
2021/03/09 05:38:17;;;;;;;173.23;83.67;;;-6.40;8.40;;;;;;4840737;28;20666;-86
2021/03/09 05:40:39;;;;;;;226.67;104.83;;;-6.30;16.30;;;;;;4848703;28;20673;-86
2021/03/09 05:43:01;;;;;;;214.33;104.63;;;-6.30;24.10;;;;;;4840018;28;20671;-86
2021/03/09 05:45:24;;;;;;;203.37;101.33;;;-6.10;29.70;;;;;;4840236;28;21002;-86
2021/03/09 05:47:46;;;;;;;197.70;97.83;;;-6.20;35.40;;;;;;4843261;28;21049;-86
2021/03/09 05:50:09;;;;;;;208.00;98.07;;;-6.10;41.80;;;;;;4855334;28;20621;-86
2021/03/09 05:52:35;;;;;;;170.77;86.10;;;-6.00;46.90;;;;;;4859484;28;20778;-85
2021/03/09 05:54:57;;;;;;;182.13;91.07;;;-5.90;50.80;;;;;;4858069;28;20631;-84
2021/03/09 05:57:19;;;;;;;183.70;90.50;;;-5.80;54.30;;;;;;4858645;28;21002;-85
2021/03/09 05:59:42;;;;;;;197.93;97.00;;;-5.70;58.90;;;;;;4847408;28;20627;-84
2021/03/09 06:02:05;;;;;;;193.33;94.17;;;-5.60;63.80;;;;;;4843843;28;20616;-85
2021/03/09 06:04:27;;;;;;;186.90;93.13;;;-3.90;69.00;;;;;;4847510;28;20616;-85
2021/03/09 06:06:49;;;;;;;197.67;99.53;;;-5.30;69.50;;;;;;4858495;28;20642;-85
2021/03/09 06:09:40;;;;;;;185.73;93.73;;;-5.20;71.40;;;;;;4857168;28;20677;-85
2021/03/09 06:12:15;;;;;;;206.37;104.00;;;-4.90;75.10;;;;;;4839733;28;20633;-78
2021/03/09 06:14:39;;;;;;;216.23;108.97;;;-4.10;79.80;;;;;;4847630;28;20615;-85
2021/03/09 06:17:02;;;;;;;216.57;113.23;;;-4.50;82.60;;;;;;4851785;28;20600;-86
2021/03/09 06:19:41;;;;;;;216.17;111.77;;;-4.30;85.80;;;;;;4839960;28;20666;-85
2021/03/09 06:22:03;;;;;;;212.67;111.23;;;-3.30;90.30;;;;;;4850213;28;20641;-77
2021/03/09 06:24:26;;;;;;;213.37;112.63;;;-3.80;91.90;;;;;;4848527;28;20608;-85
2021/03/09 06:26:49;;;;;;;210.87;111.77;;;-3.50;93.60;;;;;;4848016;28;20628;-77
2021/03/09 06:29:12;;;;;;;198.50;107.37;;;-3.00;93.20;;;;;;4854040;28;20664;-81
2021/03/09 06:31:35;;;;;;;194.93;107.27;;;-2.90;91.70;;;;;;4840978;28;21145;-83
2021/03/09 06:34:25;;;;;;;174.87;98.93;;;-2.70;87.90;;;;;;4848918;28;20711;-84
2021/03/09 06:37:01;;;;;;;154.10;90.00;;;-2.40;77.60;;;;;;4852239;28;20580;-78
2021/03/09 06:39:23;;;;;;;149.10;85.93;;;-2.10;64.30;;;;;;4857974;28;21094;-83
2021/03/09 06:41:46;;;;;;;143.17;80.63;;;-1.90;45.60;;;;;;4841044;28;20616;-85
2021/03/09 06:44:11;;;;;;;233.50;119.60;;;-1.70;16.10;;;;;;4848661;28;20674;-85
2021/03/09 06:46:46;;;;;;;170.80;95.27;;;-1.50;1.00;;;;;;4841439;28;20897;-81
2021/03/09 06:49:08;;;;;;;159.27;89.33;;;-1.30;1.00;;;;;;4837678;28;20634;-85
2021/03/09 06:51:31;;;;;;;133.73;74.63;;;-1.00;1.00;;;;;;4838252;28;20656;-81
2021/03/09 06:54:05;;;;;;;158.17;78.73;;;-0.80;99.90;;;;;;4839906;28;20994;-83
2021/03/09 06:56:28;;;;;;;136.07;73.77;;;-0.70;1.00;;;;;;4852669;28;20710;-83
2021/03/09 06:58:53;;;;;;;150.70;79.93;;;-0.50;1.00;;;;;;4841987;28;20616;-85
2021/03/09 07:01:16;;;;;;;120.63;65.23;;;-0.30;1.00;;;;;;4845590;28;20615;-81
2021/03/09 07:03:40;;;;;;;103.10;58.53;;;-0.20;1.00;;;;;;4848004;28;20605;-82
2021/03/09 07:06:02;;;;;;;110.70;60.37;;;0.00;99.90;;;;;;4854344;28;20612;-78
2021/03/09 07:08:29;;;;;;;102.13;57.67;;;0.10;99.90;;;;;;4853945;28;20677;-84
2021/03/09 07:10:51;;;;;;;93.23;54.60;;;0.30;18.10;;;;;;4856389;28;20239;-85
2021/03/09 07:13:14;;;;;;;97.03;55.80;;;0.30;1.00;;;;;;4854295;28;20643;-83
2021/03/09 07:15:37;;;;;;;99.83;56.47;;;0.40;1.00;;;;;;4845213;28;20667;-83
2021/03/09 07:18:00;;;;;;;98.27;53.90;;;0.50;1.00;;;;;;4841329;28;20197;-84
2021/03/09 07:20:23;;;;;;;95.27;53.07;;;0.60;99.90;;;;;;4836198;28;20284;-85
2021/03/09 07:22:46;;;;;;;84.77;50.00;;;0.70;99.90;;;;;;4844746;28;20567;-84
2021/03/09 07:25:11;;;;;;;89.37;48.63;;;0.80;1.00;;;;;;4837310;28;20624;-84
2021/03/09 07:27:40;;;;;;;81.37;48.37;;;1.00;1.00;;;;;;4820521;28;21014;-77
2021/03/09 07:30:04;;;;;;;89.07;52.00;;;1.10;1.00;;;;;;4837968;28;20191;-83
2021/03/09 07:32:31;;;;;;;89.50;53.23;;;1.20;99.90;;;;;;4835585;28;20696;-82
2021/03/09 07:34:57;;;;;;;80.03;47.50;;;1.30;99.90;;;;;;4843895;28;20260;-84
2021/03/09 07:37:20;;;;;;;81.43;48.33;;;1.40;99.90;;;;;;4855540;28;20197;-81
2021/03/09 07:39:45;;;;;;;78.27;46.30;;;1.50;99.90;;;;;;4844725;28;20587;-83
2021/03/09 07:42:10;;;;;;;76.93;47.40;;;1.60;99.90;;;;;;4838734;28;20245;-82
2021/03/09 07:44:33;;;;;;;77.30;46.47;;;1.70;99.90;;;;;;4858998;28;20710;-76
2021/03/09 07:46:59;;;;;;;72.03;44.77;;;1.80;99.90;;;;;;4859985;28;20189;-79
2021/03/09 07:49:26;;;;;;;71.17;42.20;;;1.90;70.20;;;;;;4859572;28;20255;-80
2021/03/09 07:52:09;;;;;;;73.30;42.40;;;2.00;1.00;;;;;;4822933;28;20219;-74
2021/03/09 07:54:31;;;;;;;78.03;44.50;;;2.10;1.00;;;;;;4835235;28;20218;-77
2021/03/09 07:57:20;;;;;;;62.00;38.93;;;2.20;1.00;;;;;;4842931;28;20198;-81
2021/03/09 07:59:55;;;;;;;61.20;37.90;;;2.40;1.00;;;;;;4841536;28;20703;-77
2021/03/09 08:02:42;;;;;;;65.90;40.17;;;2.80;1.00;;;;;;4838842;28;20598;-77
2021/03/09 08:05:05;;;;;;;67.43;40.90;;;3.10;1.00;;;;;;4839474;28;20232;-75
2021/03/09 08:07:57;;;;;;;60.40;38.57;;;3.40;1.00;;;;;;4840528;28;20269;-83
2021/03/09 08:10:44;;;;;;;61.60;37.13;;;3.70;1.00;;;;;;4838853;28;20187;-80
2021/03/09 08:13:27;;;;;;;54.40;33.40;;;4.10;1.00;;;;;;4828732;28;20229;-80
2021/03/09 08:15:50;;;;;;;53.47;33.03;;;4.30;1.00;;;;;;4839266;28;20570;-81
2021/03/09 08:18:46;;;;;;;54.83;33.60;;;4.60;1.00;;;;;;4840475;28;20188;-82
2021/03/09 08:21:10;;;;;;;44.47;27.30;;;4.80;1.00;;;;;;4843818;28;20285;-76
2021/03/09 08:23:55;;;;;;;36.23;24.83;;;5.00;1.00;;;;;;4852023;28;20201;-74
2021/03/09 08:26:46;;;;;;;39.50;25.97;;;5.10;1.00;;;;;;4853558;28;20191;-79
2021/03/09 08:29:38;;;;;;;40.70;26.03;;;5.10;1.00;;;;;;4841036;28;20194;-84
2021/03/09 08:32:36;;;;;;;39.50;26.40;;;5.10;1.00;;;;;;4823335;28;20578;-80
2021/03/09 08:35:36;;;;;;;37.20;25.13;;;5.20;1.00;;;;;;4780840;29;20232;-79
2021/03/09 08:38:18;;;;;;;52.33;29.37;;;5.20;1.00;;;;;;4781420;28;20192;-80
2021/03/09 08:41:10;;;;;;;50.33;28.10;;;5.20;99.90;;;;;;4828991;28;20203;-82
2021/03/09 08:43:33;;;;;;;37.27;21.93;;;5.10;99.90;;;;;;4859196;28;20695;-78
2021/03/09 08:46:08;;;;;;;38.10;22.97;;;5.10;99.90;;;;;;4858425;28;20193;-79
2021/03/09 08:48:47;;;;;;;26.87;17.13;;;5.10;99.90;;;;;;4847831;28;20197;-80
2021/03/09 08:51:36;;;;;;;16.47;11.67;;;5.20;99.90;;;;;;4852983;28;20209;-80
2021/03/09 08:53:59;;;;;;;16.03;10.90;;;5.30;99.90;;;;;;4838541;28;20202;-79
2021/03/09 08:56:45;;;;;;;18.50;11.97;;;5.30;99.90;;;;;;4843082;28;20186;-80
2021/03/09 08:59:10;;;;;;;19.60;14.00;;;5.40;99.90;;;;;;4839102;28;20221;-80
2021/03/09 09:01:32;;;;;;;18.80;13.37;;;5.50;99.90;;;;;;4856542;28;20208;-77
2021/03/09 09:03:56;;;;;;;19.50;13.30;;;5.70;99.90;;;;;;4854809;28;20197;-80
2021/03/09 09:06:27;;;;;;;17.93;12.37;;;5.80;99.90;;;;;;4822477;28;20564;-80
2021/03/09 09:08:50;;;;;;;14.77;10.60;;;6.10;99.90;;;;;;4842296;28;20188;-82
2021/03/09 09:11:13;;;;;;;12.80;8.10;;;6.30;99.90;;;;;;4848359;28;20572;-80
2021/03/09 09:13:37;;;;;;;10.80;7.70;;;6.70;99.90;;;;;;4850101;28;20641;-73
2021/03/09 09:16:01;;;;;;;10.53;7.43;;;7.30;99.90;;;;;;4838866;28;20226;-81
2021/03/09 09:18:27;;;;;;;9.40;8.23;;;7.90;99.90;;;;;;4841898;28;20656;-82
2021/03/09 09:20:51;;;;;;;13.50;9.33;;;8.40;99.90;;;;;;4857089;28;20192;-77
2021/03/09 09:23:15;;;;;;;10.33;8.67;;;8.90;99.90;;;;;;4857310;28;20194;-78
2021/03/09 09:25:41;;;;;;;9.30;7.63;;;9.30;99.90;;;;;;4856216;28;20224;-77
2021/03/09 09:28:05;;;;;;;8.37;6.70;;;9.60;99.90;;;;;;4858302;28;20193;-82
2021/03/09 09:30:39;;;;;;;5.93;5.17;;;9.70;99.90;;;;;;4848558;28;20186;-82
2021/03/09 09:33:03;;;;;;;5.03;3.90;;;10.00;99.90;;;;;;4823828;28;20217;-82
2021/03/09 09:35:29;;;;;;;1.97;1.80;;;10.10;99.90;;;;;;4856722;28;20696;-83
2021/03/09 09:37:58;;;;;;;3.70;3.23;;;10.10;99.90;;;;;;4840091;28;20237;-85
2021/03/09 09:40:23;;;;;;;3.67;3.27;;;10.10;99.90;;;;;;4838575;28;20645;-83
2021/03/09 09:42:56;;;;;;;2.77;2.50;;;9.60;99.90;;;;;;4849057;28;20655;-79
2021/03/09 09:45:20;;;;;;;4.90;3.83;;;9.30;99.90;;;;;;4851784;28;20190;-80
2021/03/09 09:47:44;;;;;;;3.40;3.10;;;9.60;99.90;;;;;;4849414;28;20213;-82
2021/03/09 09:50:08;;;;;;;2.13;1.93;;;10.10;99.90;;;;;;4838590;28;20189;-75
2021/03/09 09:52:31;;;;;;;3.03;2.73;;;10.40;99.90;;;;;;4848428;28;20726;-83
2021/03/09 09:54:56;;;;;;;3.30;2.97;;;10.20;99.90;;;;;;4856742;28;20593;-74
2021/03/09 09:57:19;;;;;;;3.80;2.67;;;10.00;99.90;;;;;;4828714;28;20195;-75
2021/03/09 09:59:42;;;;;;;4.53;2.73;;;10.00;99.90;;;;;;4847224;28;20764;-75
2021/03/09 10:02:21;;;;;;;2.47;2.27;;;10.30;99.90;;;;;;4849438;28;20190;-77
2021/03/09 10:04:44;;;;;;;2.20;2.00;;;11.40;99.90;;;;;;4836878;28;20691;-74
2021/03/09 10:07:15;;;;;;;1.97;1.77;;;13.20;99.90;;;;;;4850393;28;20186;-80
2021/03/09 10:09:39;;;;;;;1.20;1.20;;;14.90;99.90;;;;;;4836919;28;20175;-78
2021/03/09 10:12:04;;;;;;;0.70;0.70;;;16.40;99.90;;;;;;4842602;28;20191;-78
2021/03/09 10:14:29;;;;;;;0.73;0.73;;;18.40;99.90;;;;;;4854547;28;20240;-82
2021/03/09 10:16:55;;;;;;;0.50;0.50;;;19.70;99.90;;;;;;4853121;28;20187;-81
2021/03/09 10:19:21;;;;;;;0.47;0.47;;;19.50;99.90;;;;;;4849437;28;20175;-76
2021/03/09 10:21:46;;;;;;;0.53;0.53;;;18.60;99.90;;;;;;4856056;28;20189;-76
2021/03/09 10:24:22;;;;;;;0.43;0.43;;;17.30;99.90;;;;;;4846381;28;20628;-79
2021/03/09 10:26:48;;;;;;;0.87;0.87;;;16.00;99.90;;;;;;4855419;28;20739;-82
2021/03/09 10:29:16;;;;;;;0.77;0.77;;;14.70;99.90;;;;;;4839286;28;20199;-79
2021/03/09 10:31:51;;;;;;;1.07;1.07;;;13.60;99.90;;;;;;4839259;28;20664;-79
2021/03/09 10:34:17;;;;;;;1.07;1.07;;;12.70;99.90;;;;;;4853536;28;20340;-79
2021/03/09 10:37:00;;;;;;;1.47;1.37;;;12.00;99.90;;;;;;4853884;28;20553;-78
2021/03/09 10:39:25;;;;;;;2.40;2.20;;;11.50;99.90;;;;;;4852186;28;20186;-79
2021/03/09 10:41:49;;;;;;;2.13;1.93;;;11.00;99.90;;;;;;4852973;28;20198;-81
2021/03/09 10:44:50;;;;;;;2.40;2.20;;;10.70;99.90;;;;;;4853334;28;20229;-80
2021/03/09 10:47:14;;;;;;;3.93;3.60;;;10.50;99.90;;;;;;4796978;28;20179;-74
2021/03/09 10:49:38;;;;;;;3.50;3.00;;;10.20;99.90;;;;;;4842553;28;20225;-80
2021/03/09 10:52:06;;;;;;;3.73;3.43;;;10.00;99.90;;;;;;4833459;28;20197;-86
2021/03/09 10:54:31;;;;;;;3.73;3.17;;;9.90;99.90;;;;;;4839408;28;20211;-75
2021/03/09 10:56:54;;;;;;;4.97;3.97;;;10.10;99.90;;;;;;4842090;28;20182;-81
2021/03/09 10:59:17;;;;;;;3.30;3.00;;;10.80;99.90;;;;;;4841323;28;20628;-81
2021/03/09 11:01:42;;;;;;;3.00;2.77;;;12.00;99.90;;;;;;4837949;28;20554;-82
2021/03/09 11:04:05;;;;;;;2.47;2.27;;;13.50;99.90;;;;;;4820228;28;20243;-75
2021/03/09 11:06:31;;;;;;;1.83;1.73;;;14.20;99.90;;;;;;4836009;28;20272;-77
2021/03/09 11:08:55;;;;;;;2.00;1.90;;;14.20;99.90;;;;;;4835166;28;20182;-77
2021/03/09 11:11:18;;;;;;;1.80;1.70;;;13.70;99.90;;;;;;4820895;28;20626;-76
2021/03/09 11:13:40;;;;;;;1.90;1.77;;;13.30;99.90;;;;;;4837295;28;20190;-81
2021/03/09 11:16:02;;;;;;;2.00;1.80;;;12.80;99.90;;;;;;4840900;28;20261;-74
2021/03/09 11:18:24;;;;;;;1.80;1.70;;;12.30;99.90;;;;;;4849226;28;20856;-78
2021/03/09 11:20:46;;;;;;;2.13;2.00;;;12.20;99.90;;;;;;4852575;28;20599;-84
2021/03/09 11:23:09;;;;;;;2.20;2.00;;;11.90;99.90;;;;;;4841262;28;20264;-81
2021/03/09 11:25:33;;;;;;;2.50;2.30;;;12.10;99.90;;;;;;4844388;28;20763;-82
2021/03/09 11:27:55;;;;;;;2.57;2.37;;;12.00;99.90;;;;;;4860568;28;20190;-75
2021/03/09 11:30:18;;;;;;;2.60;2.40;;;11.90;99.90;;;;;;4851741;28;20190;-76
2021/03/09 11:32:41;;;;;;;2.43;2.23;;;11.60;99.90;;;;;;4860013;28;20225;-78
2021/03/09 11:35:03;;;;;;;2.80;2.60;;;11.30;99.90;;;;;;4844308;28;20711;-75
2021/03/09 11:37:25;;;;;;;2.47;2.27;;;11.00;99.90;;;;;;4841261;28;20183;-81
2021/03/09 11:39:48;;;;;;;3.23;2.90;;;10.60;99.90;;;;;;4841959;28;20247;-82
2021/03/09 11:42:11;;;;;;;2.57;2.37;;;10.40;99.90;;;;;;4840623;28;20600;-82
2021/03/09 11:44:33;;;;;;;2.80;2.60;;;10.30;99.90;;;;;;4840981;28;20256;-78
2021/03/09 11:46:55;;;;;;;2.93;2.47;;;10.30;99.90;;;;;;4839496;28;20699;-78
2021/03/09 11:49:18;;;;;;;3.20;2.90;;;10.20;99.90;;;;;;4847040;28;20186;-83
2021/03/09 11:51:40;;;;;;;2.70;2.50;;;10.10;99.90;;;;;;4839418;28;20684;-80
2021/03/09 11:54:02;;;;;;;2.73;2.53;;;10.10;99.90;;;;;;4840886;28;20199;-81
2021/03/09 11:56:24;;;;;;;2.87;2.60;;;10.00;99.90;;;;;;4852194;28;20201;-79
2021/03/09 11:58:48;;;;;;;2.60;2.40;;;9.90;99.90;;;;;;4856491;28;20534;-84
2021/03/09 12:01:10;;;;;;;2.63;2.43;;;9.90;99.90;;;;;;4841793;28;20183;-81
2021/03/09 12:03:32;;;;;;;3.10;2.80;;;10.00;99.90;;;;;;4855479;28;20729;-82
2021/03/09 12:05:54;;;;;;;2.93;2.63;;;10.00;99.90;;;;;;4856551;28;20193;-80
2021/03/09 12:08:16;;;;;;;2.73;2.53;;;10.00;99.90;;;;;;4840655;28;20618;-78
2021/03/09 12:10:38;;;;;;;3.13;2.83;;;10.00;99.90;;;;;;4840956;28;20187;-74
2021/03/09 12:13:00;;;;;;;3.13;2.73;;;10.10;99.90;;;;;;4843613;28;20193;-80
2021/03/09 12:15:24;;;;;;;3.03;2.77;;;10.10;99.90;;;;;;4841593;28;20265;-82
2021/03/09 12:17:46;;;;;;;2.57;2.37;;;10.30;99.90;;;;;;4840196;28;20245;-81
2021/03/09 12:20:09;;;;;;;2.77;2.57;;;11.70;99.90;;;;;;4852474;28;20251;-79
2021/03/09 12:22:31;;;;;;;1.47;1.37;;;14.00;99.90;;;;;;4851170;28;20214;-82
2021/03/09 12:24:53;;;;;;;1.03;1.03;;;15.80;99.90;;;;;;4853652;28;20202;-75